createdAt,value
2023-05-25T00:02:15.339Z,56.30
2023-05-25T00:04:43.287Z,56.30
2023-05-25T00:07:10.995Z,56.30
2023-05-25T00:09:38.611Z,56.40
2023-05-25T00:12:07.347Z,56.60
2023-05-25T00:14:34.938Z,56.70
2023-05-25T00:17:04.303Z,57.00
2023-05-25T00:19:34.599Z,57.10
2023-05-25T00:22:02.456Z,57.40
2023-05-25T00:24:30.976Z,57.50
2023-05-25T00:26:58.783Z,57.60
2023-05-25T00:29:26.778Z,57.60
2023-05-25T00:31:54.574Z,57.90
2023-05-25T00:34:22.623Z,58.00
2023-05-25T00:36:50.400Z,58.20
2023-05-25T00:39:21.703Z,58.40
2023-05-25T00:41:50.020Z,58.70
2023-05-25T00:44:21.472Z,58.80
2023-05-25T00:46:52.142Z,58.90
2023-05-25T00:49:23.179Z,59.70
2023-05-25T00:51:52.967Z,60.00
2023-05-25T00:54:20.611Z,60.20
2023-05-25T00:56:57.528Z,60.40
2023-05-25T00:59:44.495Z,61.00
2023-05-25T01:02:16.996Z,61.40
2023-05-25T01:04:59.649Z,62.10
2023-05-25T01:07:31.044Z,62.30
2023-05-25T01:10:04.786Z,62.70
2023-05-25T01:12:39.232Z,63.10
2023-05-25T01:15:09.116Z,62.70
2023-05-25T01:17:38.229Z,63.00
2023-05-25T01:20:13.188Z,63.20
2023-05-25T01:22:55.534Z,63.30
2023-05-25T01:25:40.103Z,64.10
2023-05-25T01:28:26.533Z,64.10
2023-05-25T01:30:57.343Z,64.10
2023-05-25T01:33:26.249Z,64.10
2023-05-25T01:35:54.199Z,63.50
2023-05-25T01:38:21.828Z,62.60
2023-05-25T01:40:49.374Z,62.70
2023-05-25T01:43:17.394Z,62.80
2023-05-25T01:45:45.154Z,62.70
2023-05-25T01:48:31.622Z,63.10
2023-05-25T01:51:15.461Z,63.30
2023-05-25T01:53:51.631Z,63.20
2023-05-25T01:56:21.526Z,62.70
2023-05-25T01:58:51.668Z,62.20
2023-05-25T02:01:22.650Z,62.10
2023-05-25T02:03:51.194Z,62.00
2023-05-25T02:06:19.031Z,61.80
2023-05-25T02:08:46.635Z,61.90
2023-05-25T02:11:14.786Z,62.00
2023-05-25T02:13:42.621Z,61.70
2023-05-25T02:16:10.288Z,61.80
2023-05-25T02:18:37.898Z,61.70
2023-05-25T02:21:05.501Z,62.00
2023-05-25T02:23:33.059Z,62.20
2023-05-25T02:26:00.614Z,62.10
2023-05-25T02:28:28.792Z,62.30
2023-05-25T02:30:57.826Z,62.30
2023-05-25T02:33:25.670Z,62.60
2023-05-25T02:35:53.876Z,62.90
2023-05-25T02:38:21.421Z,63.30
2023-05-25T02:40:49.068Z,63.60
2023-05-25T02:43:16.621Z,63.90
2023-05-25T02:45:44.820Z,64.50
2023-05-25T02:48:13.367Z,65.10
2023-05-25T02:50:42.898Z,65.00
2023-05-25T02:53:14.078Z,65.90
2023-05-25T02:55:43.482Z,66.90
2023-05-25T02:58:16.609Z,66.70
2023-05-25T03:00:55.353Z,67.00
2023-05-25T03:03:22.964Z,66.80
2023-05-25T03:05:51.612Z,66.90
2023-05-25T03:08:19.439Z,66.50
2023-05-25T03:10:46.972Z,66.50
2023-05-25T03:13:14.762Z,66.50
2023-05-25T03:15:42.574Z,66.50
2023-05-25T03:18:11.586Z,66.80
2023-05-25T03:20:41.437Z,66.80
2023-05-25T03:23:09.028Z,66.60
2023-05-25T03:25:37.497Z,66.30
2023-05-25T03:28:05.742Z,65.70
2023-05-25T03:30:33.437Z,65.40
2023-05-25T03:33:01.135Z,65.30
2023-05-25T03:35:34.214Z,65.10
2023-05-25T03:38:02.051Z,65.00
2023-05-25T03:40:29.697Z,64.60
2023-05-25T03:42:57.300Z,64.90
2023-05-25T03:45:24.880Z,64.70
2023-05-25T03:47:52.437Z,64.60
2023-05-25T03:50:21.711Z,64.70
2023-05-25T03:52:49.421Z,64.80
2023-05-25T03:55:17.778Z,65.40
2023-05-25T03:57:45.995Z,65.80
2023-05-25T04:00:14.547Z,65.90
2023-05-25T04:02:43.591Z,65.70
2023-05-25T04:05:11.188Z,66.20
2023-05-25T04:07:38.794Z,66.30
2023-05-25T04:10:07.560Z,66.50
2023-05-25T04:12:35.178Z,67.10
2023-05-25T04:15:04.182Z,67.20
2023-05-25T04:17:35.802Z,67.00
2023-05-25T04:20:05.246Z,66.70
2023-05-25T04:22:33.537Z,66.80
2023-05-25T04:25:02.255Z,66.80
2023-05-25T04:27:29.813Z,66.50
2023-05-25T04:29:58.785Z,66.60
2023-05-25T04:32:57.551Z,66.80
2023-05-25T04:35:37.708Z,67.30
2023-05-25T04:38:07.013Z,67.10
2023-05-25T04:40:35.549Z,67.80
2023-05-25T04:43:05.082Z,67.70
2023-05-25T04:45:33.296Z,67.90
2023-05-25T04:48:03.017Z,68.00
2023-05-25T04:50:30.745Z,68.20
2023-05-25T04:52:58.282Z,68.30
2023-05-25T04:55:25.987Z,68.10
2023-05-25T04:57:54.880Z,68.50
2023-05-25T05:00:22.659Z,68.80
2023-05-25T05:02:56.600Z,68.90
2023-05-25T05:05:24.755Z,68.90
2023-05-25T05:07:54.130Z,68.40
2023-05-25T05:10:22.593Z,68.20
2023-05-25T05:12:54.919Z,68.30
2023-05-25T05:15:22.624Z,68.60
2023-05-25T05:17:51.050Z,68.80
2023-05-25T05:20:20.905Z,68.70
2023-05-25T05:22:49.030Z,68.20
2023-05-25T05:25:17.892Z,68.00
2023-05-25T05:27:46.538Z,67.00
2023-05-25T05:30:19.163Z,66.90
2023-05-25T05:32:47.100Z,66.70
2023-05-25T05:35:15.916Z,66.20
2023-05-25T05:37:47.765Z,65.80
2023-05-25T05:40:15.538Z,65.60
2023-05-25T05:42:43.476Z,65.60
2023-05-25T05:45:13.304Z,65.60
2023-05-25T05:47:40.965Z,66.60
2023-05-25T05:50:09.278Z,66.00
2023-05-25T05:52:38.354Z,65.80
2023-05-25T05:55:06.512Z,65.60
2023-05-25T05:57:34.469Z,65.60
2023-05-25T06:00:03.883Z,65.60
2023-05-25T06:02:31.762Z,65.50
2023-05-25T06:04:59.566Z,66.20
2023-05-25T06:07:28.936Z,65.80
2023-05-25T06:09:57.620Z,65.50
2023-05-25T06:12:25.376Z,65.30
2023-05-25T06:14:53.239Z,65.20
2023-05-25T06:17:21.473Z,64.90
2023-05-25T06:19:49.967Z,65.40
2023-05-25T06:22:17.673Z,65.50
2023-05-25T06:24:45.238Z,65.00
2023-05-25T06:27:14.342Z,64.70
2023-05-25T06:29:42.158Z,64.20
2023-05-25T06:32:10.936Z,64.10
2023-05-25T06:34:39.534Z,63.80
2023-05-25T06:37:07.702Z,63.90
2023-05-25T06:39:36.507Z,63.60
2023-05-25T06:45:07.615Z,64.00
2023-05-25T06:47:35.978Z,64.30
2023-05-25T06:50:04.418Z,64.20
2023-05-25T06:52:32.064Z,64.40
2023-05-25T06:54:59.586Z,64.10
2023-05-25T06:57:27.228Z,63.80
2023-05-25T06:59:54.773Z,63.90
2023-05-25T07:02:22.344Z,63.90
2023-05-25T07:04:49.921Z,63.90
2023-05-25T07:07:17.472Z,63.60
2023-05-25T07:09:45.796Z,64.00
2023-05-25T07:12:14.533Z,64.10
2023-05-25T07:14:42.064Z,63.20
2023-05-25T07:17:10.497Z,63.00
2023-05-25T07:19:38.052Z,62.90
2023-05-25T07:22:05.960Z,62.30
2023-05-25T07:24:33.529Z,62.40
2023-05-25T07:27:02.369Z,63.10
2023-05-25T07:29:29.912Z,62.50
2023-05-25T07:31:57.478Z,61.80
2023-05-25T07:34:27.159Z,61.50
2023-05-25T07:36:55.607Z,61.00
2023-05-25T07:39:23.130Z,60.40
2023-05-25T07:41:50.874Z,59.80
2023-05-25T07:44:18.435Z,58.60
2023-05-25T07:46:46.077Z,59.10
2023-05-25T07:49:16.155Z,59.50
2023-05-25T07:51:45.609Z,59.20
2023-05-25T07:54:13.241Z,59.20
2023-05-25T07:56:40.901Z,58.70
2023-05-25T07:59:08.529Z,58.40
2023-05-25T08:01:36.776Z,58.30
2023-05-25T08:04:04.453Z,58.20
2023-05-25T08:06:34.351Z,57.90
2023-05-25T08:09:04.860Z,57.70
2023-05-25T08:11:32.519Z,57.40
2023-05-25T08:14:00.560Z,57.20
2023-05-25T08:16:28.334Z,56.80
2023-05-25T08:18:56.048Z,56.60
2023-05-25T08:21:24.702Z,57.60
2023-05-25T08:23:53.899Z,57.30
2023-05-25T08:28:53.325Z,57.70
2023-05-25T08:31:20.972Z,57.40
2023-05-25T08:33:48.713Z,57.60
2023-05-25T08:36:16.367Z,57.30
2023-05-25T08:38:43.898Z,58.00
2023-05-25T08:41:13.163Z,57.00
2023-05-25T08:43:42.030Z,56.90
2023-05-25T08:46:09.920Z,56.80
2023-05-25T08:48:42.327Z,57.20
2023-05-25T08:51:16.225Z,56.90
2023-05-25T08:53:44.921Z,56.80
2023-05-25T08:56:20.579Z,57.00
2023-05-25T08:59:15.597Z,56.60
2023-05-25T09:01:51.244Z,56.00
2023-05-25T09:04:21.132Z,56.60
2023-05-25T09:07:05.705Z,57.00
2023-05-25T09:09:38.643Z,57.40
2023-05-25T09:12:07.451Z,57.20
2023-05-25T09:14:37.756Z,57.40
2023-05-25T09:17:05.598Z,58.10
2023-05-25T09:19:35.125Z,58.00
2023-05-25T09:22:15.038Z,57.70
2023-05-25T09:24:45.299Z,58.30
2023-05-25T09:27:17.659Z,58.00
2023-05-25T09:29:52.251Z,58.30
2023-05-25T09:32:20.181Z,57.80
2023-05-25T09:34:48.222Z,57.60
2023-05-25T09:37:19.446Z,56.80
2023-05-25T09:39:47.926Z,56.80
2023-05-25T09:42:16.813Z,57.20
2023-05-25T09:44:44.672Z,56.80
2023-05-25T09:47:13.923Z,56.40
2023-05-25T09:49:44.316Z,56.50
2023-05-25T09:52:13.231Z,55.30
2023-05-25T09:54:48.280Z,55.20
2023-05-25T09:57:16.893Z,54.30
2023-05-25T09:59:45.351Z,54.20
2023-05-25T10:02:14.487Z,54.10
2023-05-25T10:04:42.121Z,52.00
2023-05-25T10:07:09.811Z,50.60
2023-05-25T10:09:43.021Z,51.80
2023-05-25T10:12:11.679Z,51.90
2023-05-25T10:14:40.437Z,51.50
2023-05-25T10:17:11.473Z,52.10
2023-05-25T10:19:52.526Z,51.50
2023-05-25T10:22:36.254Z,51.30
2023-05-25T10:25:10.263Z,51.70
2023-05-25T10:27:59.806Z,51.70
2023-05-25T10:30:27.814Z,49.50
2023-05-25T10:32:56.942Z,51.20
2023-05-25T10:35:25.291Z,51.60
2023-05-25T10:37:54.624Z,51.90
2023-05-25T10:40:23.372Z,52.00
2023-05-25T10:42:51.848Z,50.80
2023-05-25T10:45:20.438Z,50.60
2023-05-25T10:47:48.720Z,50.00
2023-05-25T10:50:27.145Z,50.80
2023-05-25T10:53:12.037Z,49.30
2023-05-25T10:55:54.622Z,50.30
2023-05-25T10:58:23.688Z,49.70
2023-05-25T11:01:08.042Z,50.70
2023-05-25T11:03:45.266Z,49.20
2023-05-25T11:06:23.283Z,48.60
2023-05-25T11:09:02.560Z,49.00
2023-05-25T11:11:48.626Z,49.10
2023-05-25T11:14:31.027Z,48.90
2023-05-25T11:17:18.421Z,48.90
2023-05-25T11:19:51.093Z,48.40
2023-05-25T11:22:30.316Z,49.00
2023-05-25T11:25:00.556Z,47.50
2023-05-25T11:27:32.196Z,48.10
2023-05-25T11:30:00.230Z,48.00
2023-05-25T11:32:29.176Z,48.10
2023-05-25T11:34:58.230Z,46.10
2023-05-25T11:37:31.353Z,47.00
2023-05-25T11:39:59.307Z,46.70
2023-05-25T11:42:27.707Z,46.10
2023-05-25T11:44:56.180Z,46.60
2023-05-25T11:47:25.212Z,44.40
2023-05-25T11:49:56.308Z,45.30
2023-05-25T11:52:24.032Z,45.30
2023-05-25T11:54:53.076Z,45.40
2023-05-25T11:57:24.696Z,45.00
2023-05-25T12:00:24.983Z,44.30
2023-05-25T12:02:53.105Z,44.10
2023-05-25T12:05:20.940Z,44.60
2023-05-25T12:07:48.504Z,44.20
2023-05-25T12:10:16.773Z,43.10
2023-05-25T12:12:52.317Z,44.00
2023-05-25T12:15:24.816Z,43.20
2023-05-25T12:17:54.210Z,41.40
2023-05-25T12:20:22.539Z,42.40
2023-05-25T12:22:50.741Z,42.60
2023-05-25T12:25:24.480Z,43.00
2023-05-25T12:28:12.718Z,42.40
2023-05-25T12:30:40.710Z,42.70
2023-05-25T12:33:08.388Z,43.60
2023-05-25T12:35:50.446Z,43.20
2023-05-25T12:38:19.993Z,41.60
2023-05-25T12:40:47.881Z,42.30
2023-05-25T12:43:17.495Z,41.90
2023-05-25T12:45:45.206Z,41.50
2023-05-25T12:48:12.941Z,42.50
2023-05-25T12:51:00.072Z,42.50
2023-05-25T12:53:28.951Z,40.10
2023-05-25T12:56:04.428Z,42.40
2023-05-25T12:58:32.153Z,41.20
2023-05-25T13:01:00.055Z,39.50
2023-05-25T13:03:27.741Z,40.30
2023-05-25T13:06:02.296Z,40.20
2023-05-25T13:08:30.126Z,40.80
2023-05-25T13:10:57.854Z,41.70
2023-05-25T13:13:25.440Z,41.00
2023-05-25T13:15:53.823Z,40.30
2023-05-25T13:18:21.382Z,39.40
2023-05-25T13:20:51.756Z,41.00
2023-05-25T13:23:20.985Z,40.80
2023-05-25T13:25:48.529Z,39.70
2023-05-25T13:28:16.111Z,40.30
2023-05-25T13:30:43.955Z,39.30
2023-05-25T13:33:11.781Z,38.90
2023-05-25T13:35:46.316Z,37.40
2023-05-25T13:38:16.554Z,39.50
2023-05-25T13:40:45.402Z,39.40
2023-05-25T13:43:13.195Z,38.60
2023-05-25T13:45:40.710Z,39.10
2023-05-25T13:48:08.373Z,38.70
2023-05-25T13:50:35.937Z,38.80
2023-05-25T13:53:03.545Z,38.30
2023-05-25T13:55:31.083Z,38.20
2023-05-25T13:57:58.646Z,37.60
2023-05-25T14:00:26.206Z,38.30
2023-05-25T14:02:54.045Z,37.60
2023-05-25T14:05:21.861Z,37.20
2023-05-25T14:07:49.517Z,38.20
2023-05-25T14:10:17.167Z,38.70
2023-05-25T14:12:45.103Z,38.30
2023-05-25T14:15:12.886Z,38.60
2023-05-25T14:17:40.505Z,35.10
2023-05-25T14:20:08.614Z,35.60
2023-05-25T14:22:36.786Z,36.60
2023-05-25T14:25:05.138Z,35.70
2023-05-25T14:27:32.697Z,34.90
2023-05-25T14:30:00.293Z,34.70
2023-05-25T14:32:27.907Z,33.70
2023-05-25T14:34:55.504Z,34.00
2023-05-25T14:37:23.091Z,33.30
2023-05-25T14:39:50.733Z,33.60
2023-05-25T14:42:18.729Z,32.80
2023-05-25T14:44:46.342Z,33.50
2023-05-25T14:47:14.030Z,32.50
2023-05-25T14:49:41.601Z,31.20
2023-05-25T14:52:09.181Z,32.40
2023-05-25T14:54:37.037Z,32.40
2023-05-25T14:57:04.949Z,31.80
2023-05-25T14:59:32.504Z,31.40
2023-05-25T15:02:00.103Z,32.40
2023-05-25T15:04:29.822Z,32.70
2023-05-25T15:06:58.376Z,32.40
2023-05-25T15:09:25.961Z,31.80
2023-05-25T15:11:53.537Z,30.20
2023-05-25T15:14:21.109Z,31.50
2023-05-25T15:16:48.713Z,31.40
2023-05-25T15:19:17.702Z,31.00
2023-05-25T15:21:45.623Z,31.30
2023-05-25T15:24:16.538Z,31.30
2023-05-25T15:26:44.113Z,31.10
2023-05-25T15:29:11.736Z,31.20
2023-05-25T15:31:39.306Z,31.50
2023-05-25T15:34:06.918Z,32.00
2023-05-25T15:36:34.512Z,31.70
2023-05-25T15:39:02.396Z,31.90
2023-05-25T15:41:29.950Z,31.90
2023-05-25T15:44:00.735Z,31.60
2023-05-25T15:46:28.926Z,32.00
2023-05-25T15:48:56.690Z,32.00
2023-05-25T15:51:24.216Z,30.70
2023-05-25T15:53:52.317Z,31.50
2023-05-25T15:56:19.846Z,32.30
2023-05-25T15:58:49.263Z,32.30
2023-05-25T16:01:16.885Z,32.00
2023-05-25T16:03:44.837Z,32.40
2023-05-25T16:06:12.690Z,33.10
2023-05-25T16:08:40.260Z,33.00
2023-05-25T16:11:07.805Z,33.00
2023-05-25T16:13:35.442Z,32.50
2023-05-25T16:16:03.124Z,32.80
2023-05-25T16:18:30.766Z,32.90
2023-05-25T16:20:58.381Z,33.60
2023-05-25T16:23:26.021Z,33.70
2023-05-25T16:25:53.637Z,34.40
2023-05-25T16:28:21.223Z,33.90
2023-05-25T16:30:48.798Z,34.20
2023-05-25T16:33:16.389Z,34.30
2023-05-25T16:35:44.211Z,34.50
2023-05-25T16:38:11.936Z,35.10
2023-05-25T16:40:39.535Z,34.70
2023-05-25T16:43:07.229Z,34.70
2023-05-25T16:45:34.857Z,35.10
2023-05-25T16:48:02.482Z,35.10
2023-05-25T16:50:30.053Z,35.70
2023-05-25T16:52:57.601Z,36.00
2023-05-25T16:55:25.443Z,36.50
2023-05-25T16:57:53.005Z,36.50
2023-05-25T17:00:21.040Z,36.30
2023-05-25T17:02:48.719Z,35.70
2023-05-25T17:05:16.391Z,35.70
2023-05-25T17:07:43.952Z,36.00
2023-05-25T17:10:11.767Z,36.10
2023-05-25T17:12:39.949Z,36.10
2023-05-25T17:15:08.370Z,36.70
2023-05-25T17:17:35.959Z,37.20
2023-05-25T17:20:04.113Z,36.30
2023-05-25T17:22:31.726Z,36.20
2023-05-25T17:24:59.562Z,37.00
2023-05-25T17:27:27.140Z,37.30
2023-05-25T17:29:54.781Z,37.40
2023-05-25T17:32:22.379Z,37.00
2023-05-25T17:34:49.905Z,37.20
2023-05-25T17:37:19.026Z,37.40
2023-05-25T17:39:46.709Z,37.70
2023-05-25T17:42:14.384Z,37.80
2023-05-25T17:44:42.450Z,38.00
2023-05-25T17:47:11.303Z,38.10
2023-05-25T17:49:39.075Z,38.30
2023-05-25T17:52:07.534Z,38.20
2023-05-25T17:54:35.554Z,38.40
2023-05-25T17:57:03.485Z,38.40
2023-05-25T17:59:31.087Z,38.40
2023-05-25T18:01:58.819Z,38.60
2023-05-25T18:04:26.483Z,38.90
2023-05-25T18:06:54.010Z,38.90
2023-05-25T18:09:21.791Z,38.90
2023-05-25T18:11:49.359Z,39.50
2023-05-25T18:14:16.944Z,39.90
2023-05-25T18:16:44.908Z,39.90
2023-05-25T18:19:14.677Z,40.30
2023-05-25T18:21:42.248Z,40.60
2023-05-25T18:24:10.377Z,41.10
2023-05-25T18:26:38.033Z,41.30
2023-05-25T18:29:05.630Z,41.70
2023-05-25T18:31:33.396Z,41.80
2023-05-25T18:34:01.114Z,42.10
2023-05-25T18:36:28.860Z,41.90
2023-05-25T18:38:56.433Z,42.10
2023-05-25T18:41:25.196Z,42.30
2023-05-25T18:43:52.746Z,42.50
2023-05-25T18:46:20.648Z,42.60
2023-05-25T18:48:48.284Z,42.40
2023-05-25T18:51:17.068Z,42.50
2023-05-25T18:53:44.868Z,42.90
2023-05-25T18:56:12.393Z,42.90
2023-05-25T18:58:39.999Z,43.10
2023-05-25T19:01:07.566Z,43.10
2023-05-25T19:03:35.411Z,43.20
2023-05-25T19:06:03.048Z,43.10
2023-05-25T19:08:30.638Z,43.20
2023-05-25T19:10:58.158Z,43.30
2023-05-25T19:13:25.715Z,43.40
2023-05-25T19:15:53.256Z,43.90
2023-05-25T19:18:20.918Z,44.00
2023-05-25T19:20:48.730Z,43.90
2023-05-25T19:23:16.468Z,44.10
2023-05-25T19:25:44.238Z,44.20
2023-05-25T19:28:12.053Z,44.80
2023-05-25T19:30:39.597Z,44.60
2023-05-25T19:33:07.213Z,45.00
2023-05-25T19:35:34.804Z,45.60
2023-05-25T19:38:02.545Z,45.60
2023-05-25T19:40:30.713Z,45.60
2023-05-25T19:42:58.270Z,45.30
2023-05-25T19:45:26.000Z,45.40
2023-05-25T19:47:54.391Z,45.20
2023-05-25T19:50:21.979Z,45.40
2023-05-25T19:52:49.602Z,45.30
2023-05-25T19:55:17.232Z,45.20
2023-05-25T19:57:44.810Z,45.40
2023-05-25T20:00:21.145Z,45.80
2023-05-25T20:02:53.876Z,45.80
2023-05-25T20:05:21.592Z,45.70
2023-05-25T20:07:50.872Z,46.00
2023-05-25T20:10:18.700Z,46.30
2023-05-25T20:12:46.848Z,46.50
2023-05-25T20:15:14.474Z,46.50
2023-05-25T20:17:42.041Z,46.80
2023-05-25T20:20:10.062Z,47.20
2023-05-25T20:22:37.687Z,47.60
2023-05-25T20:25:05.674Z,48.20
2023-05-25T20:27:33.214Z,48.50
2023-05-25T20:30:00.756Z,48.70
2023-05-25T20:32:28.406Z,48.70
2023-05-25T20:34:57.221Z,48.70
2023-05-25T20:37:24.797Z,48.70
2023-05-25T20:39:52.328Z,48.50
2023-05-25T20:42:19.915Z,48.50
2023-05-25T20:44:47.447Z,48.70
2023-05-25T20:47:15.010Z,48.70
2023-05-25T20:49:42.599Z,48.80
2023-05-25T20:52:10.170Z,48.90
2023-05-25T20:54:41.636Z,48.90
2023-05-25T20:57:09.208Z,49.20
2023-05-25T20:59:37.083Z,49.70
2023-05-25T21:02:04.935Z,50.00
2023-05-25T21:04:32.660Z,50.10
2023-05-25T21:07:00.623Z,50.40
2023-05-25T21:09:28.221Z,50.30
2023-05-25T21:11:55.812Z,50.50
2023-05-25T21:14:23.375Z,50.40
2023-05-25T21:16:51.284Z,50.50
2023-05-25T21:19:18.889Z,51.00
2023-05-25T21:21:46.430Z,51.40
2023-05-25T21:24:13.965Z,51.80
2023-05-25T21:26:41.671Z,52.20
2023-05-25T21:29:09.264Z,52.30
2023-05-25T21:31:36.935Z,52.70
2023-05-25T21:34:04.552Z,52.70
2023-05-25T21:36:32.426Z,53.20
2023-05-25T21:39:00.032Z,53.20
2023-05-25T21:41:28.447Z,53.50
2023-05-25T21:43:55.985Z,53.50
2023-05-25T21:46:23.521Z,53.60
2023-05-25T21:48:51.165Z,53.50
2023-05-25T21:51:18.685Z,53.80
2023-05-25T21:53:46.297Z,53.90
2023-05-25T21:56:13.834Z,54.00
2023-05-25T21:58:41.354Z,54.10
2023-05-25T22:01:08.964Z,54.20
2023-05-25T22:03:36.546Z,54.10
2023-05-25T22:06:04.434Z,54.20
2023-05-25T22:08:31.999Z,54.50
2023-05-25T22:10:59.523Z,54.20
2023-05-25T22:13:27.089Z,54.30
2023-05-25T22:15:54.635Z,54.40
2023-05-25T22:18:22.184Z,54.50
2023-05-25T22:20:49.914Z,54.60
2023-05-25T22:23:17.668Z,54.50
2023-05-25T22:25:45.579Z,54.50
2023-05-25T22:28:14.363Z,54.60
2023-05-25T22:30:42.356Z,54.80
2023-05-25T22:33:10.162Z,54.50
2023-05-25T22:35:37.889Z,54.70
2023-05-25T22:38:05.667Z,54.60
2023-05-25T22:40:33.243Z,54.60
2023-05-25T22:43:00.886Z,54.70
2023-05-25T22:45:28.508Z,54.60
2023-05-25T22:47:56.079Z,54.50
2023-05-25T22:50:23.630Z,55.10
2023-05-25T22:52:51.188Z,54.10
2023-05-25T22:55:18.737Z,54.10
2023-05-25T22:57:46.356Z,53.60
2023-05-25T23:00:14.209Z,53.60
2023-05-25T23:02:41.881Z,53.50
2023-05-25T23:05:10.964Z,53.60
2023-05-25T23:07:38.670Z,53.50
2023-05-25T23:10:08.000Z,53.50
2023-05-25T23:12:35.613Z,53.60
2023-05-25T23:15:04.017Z,53.70
2023-05-25T23:17:32.533Z,53.50
2023-05-25T23:20:00.195Z,53.60
2023-05-25T23:22:28.097Z,54.60
2023-05-25T23:24:55.673Z,54.10
2023-05-25T23:27:23.213Z,54.10
2023-05-25T23:29:50.766Z,54.10
2023-05-25T23:32:18.385Z,54.50
2023-05-25T23:34:45.972Z,54.60
2023-05-25T23:37:13.556Z,54.70
2023-05-25T23:39:41.090Z,54.90
2023-05-25T23:42:08.638Z,54.80
2023-05-25T23:44:36.232Z,54.70
2023-05-25T23:47:05.681Z,54.50
2023-05-25T23:49:33.275Z,55.30
2023-05-25T23:52:01.457Z,54.50
2023-05-25T23:54:28.999Z,54.50
2023-05-25T23:56:56.535Z,54.60
2023-05-25T23:59:24.107Z,54.80
